sensor_id;sensor_type;location;lat;lon;timestamp;P1;durP1;ratioP1;P2;durP2;ratioP2
46597;SDS011;32318;48.858;8.252;2024-01-15T00:05:10;75.60;;;18.67;;
46597;SDS011;32318;48.858;8.252;2024-01-15T00:13:10;77.47;;;18.85;;
46597;SDS011;32318;48.858;8.252;2024-01-15T00:21:11;79.75;;;18.95;;
46597;SDS011;32318;48.858;8.252;2024-01-15T00:29:11;83.25;;;20.45;;
46597;SDS011;32318;48.858;8.252;2024-01-15T00:37:11;73.60;;;20.13;;
46597;SDS011;32318;48.858;8.252;2024-01-15T00:45:12;71.20;;;19.20;;
46597;SDS011;32318;48.858;8.252;2024-01-15T00:53:13;74.05;;;19.50;;
46597;SDS011;32318;48.858;8.252;2024-01-15T01:01:13;88.25;;;21.10;;
46597;SDS011;32318;48.858;8.252;2024-01-15T01:09:13;88.97;;;22.95;;
46597;SDS011;32318;48.858;8.252;2024-01-15T01:17:14;81.03;;;21.80;;
46597;SDS011;32318;48.858;8.252;2024-01-15T01:25:15;92.93;;;22.30;;
46597;SDS011;32318;48.858;8.252;2024-01-15T01:33:18;86.90;;;22.13;;
46597;SDS011;32318;48.858;8.252;2024-01-15T01:41:18;90.88;;;21.98;;
46597;SDS011;32318;48.858;8.252;2024-01-15T01:49:18;87.03;;;22.02;;
46597;SDS011;32318;48.858;8.252;2024-01-15T01:57:19;86.78;;;22.13;;
46597;SDS011;32318;48.858;8.252;2024-01-15T02:05:20;98.82;;;24.20;;
46597;SDS011;32318;48.858;8.252;2024-01-15T02:13:21;93.57;;;23.25;;
46597;SDS011;32318;48.858;8.252;2024-01-15T02:21:22;101.82;;;23.42;;
46597;SDS011;32318;48.858;8.252;2024-01-15T02:29:26;92.07;;;23.92;;
46597;SDS011;32318;48.858;8.252;2024-01-15T02:37:26;101.88;;;25.05;;
46597;SDS011;32318;48.858;8.252;2024-01-15T02:45:27;89.70;;;22.92;;
46597;SDS011;32318;48.858;8.252;2024-01-15T02:53:27;83.60;;;21.63;;
46597;SDS011;32318;48.858;8.252;2024-01-15T03:01:28;100.63;;;23.10;;
46597;SDS011;32318;48.858;8.252;2024-01-15T03:09:28;87.15;;;22.63;;
46597;SDS011;32318;48.858;8.252;2024-01-15T03:17:28;75.13;;;20.98;;
46597;SDS011;32318;48.858;8.252;2024-01-15T03:25:28;84.03;;;20.75;;
46597;SDS011;32318;48.858;8.252;2024-01-15T03:33:29;70.93;;;18.02;;
46597;SDS011;32318;48.858;8.252;2024-01-15T03:41:29;75.40;;;20.58;;
46597;SDS011;32318;48.858;8.252;2024-01-15T03:49:29;83.40;;;20.48;;
46597;SDS011;32318;48.858;8.252;2024-01-15T03:57:29;91.90;;;23.80;;
46597;SDS011;32318;48.858;8.252;2024-01-15T04:05:30;77.93;;;20.65;;
46597;SDS011;32318;48.858;8.252;2024-01-15T04:13:33;73.60;;;19.52;;
46597;SDS011;32318;48.858;8.252;2024-01-15T04:21:33;64.88;;;17.73;;
46597;SDS011;32318;48.858;8.252;2024-01-15T04:29:34;80.03;;;20.20;;
46597;SDS011;32318;48.858;8.252;2024-01-15T04:37:34;76.93;;;19.70;;
46597;SDS011;32318;48.858;8.252;2024-01-15T04:45:36;75.32;;;19.67;;
46597;SDS011;32318;48.858;8.252;2024-01-15T04:53:36;68.97;;;19.25;;
46597;SDS011;32318;48.858;8.252;2024-01-15T05:01:36;71.20;;;19.67;;
46597;SDS011;32318;48.858;8.252;2024-01-15T05:09:37;75.22;;;20.75;;
46597;SDS011;32318;48.858;8.252;2024-01-15T05:17:37;71.00;;;18.52;;
46597;SDS011;32318;48.858;8.252;2024-01-15T05:25:37;72.25;;;20.45;;
46597;SDS011;32318;48.858;8.252;2024-01-15T05:33:58;76.63;;;20.88;;
46597;SDS011;32318;48.858;8.252;2024-01-15T05:41:58;73.03;;;20.02;;
46597;SDS011;32318;48.858;8.252;2024-01-15T05:50:00;64.90;;;19.88;;
46597;SDS011;32318;48.858;8.252;2024-01-15T05:58:01;80.88;;;21.25;;
46597;SDS011;32318;48.858;8.252;2024-01-15T06:06:01;81.35;;;22.17;;
46597;SDS011;32318;48.858;8.252;2024-01-15T06:14:02;74.05;;;21.85;;
46597;SDS011;32318;48.858;8.252;2024-01-15T06:22:02;78.72;;;22.05;;
46597;SDS011;32318;48.858;8.252;2024-01-15T06:30:03;66.15;;;18.55;;
46597;SDS011;32318;48.858;8.252;2024-01-15T06:38:04;62.47;;;19.63;;
46597;SDS011;32318;48.858;8.252;2024-01-15T06:46:04;64.05;;;19.35;;
46597;SDS011;32318;48.858;8.252;2024-01-15T06:54:04;63.88;;;18.05;;
46597;SDS011;32318;48.858;8.252;2024-01-15T07:02:05;53.60;;;15.57;;
46597;SDS011;32318;48.858;8.252;2024-01-15T07:10:06;55.58;;;15.98;;
46597;SDS011;32318;48.858;8.252;2024-01-15T07:18:06;65.70;;;15.88;;
46597;SDS011;32318;48.858;8.252;2024-01-15T07:26:07;61.25;;;17.45;;
46597;SDS011;32318;48.858;8.252;2024-01-15T07:34:07;75.50;;;21.05;;
46597;SDS011;32318;48.858;8.252;2024-01-15T07:42:07;69.28;;;19.20;;
46597;SDS011;32318;48.858;8.252;2024-01-15T07:50:07;62.58;;;19.50;;
46597;SDS011;32318;48.858;8.252;2024-01-15T07:58:08;67.45;;;20.20;;
46597;SDS011;32318;48.858;8.252;2024-01-15T08:06:08;77.15;;;21.80;;
46597;SDS011;32318;48.858;8.252;2024-01-15T08:14:12;70.90;;;20.70;;
46597;SDS011;32318;48.858;8.252;2024-01-15T08:22:13;77.20;;;21.00;;
46597;SDS011;32318;48.858;8.252;2024-01-15T08:30:14;75.05;;;20.80;;
46597;SDS011;32318;48.858;8.252;2024-01-15T08:38:14;67.07;;;19.25;;
46597;SDS011;32318;48.858;8.252;2024-01-15T08:46:14;70.10;;;20.45;;
46597;SDS011;32318;48.858;8.252;2024-01-15T08:54:15;69.47;;;19.83;;
46597;SDS011;32318;48.858;8.252;2024-01-15T09:02:15;71.15;;;20.25;;
46597;SDS011;32318;48.858;8.252;2024-01-15T09:10:16;65.40;;;18.57;;
46597;SDS011;32318;48.858;8.252;2024-01-15T09:18:20;56.50;;;17.23;;
46597;SDS011;32318;48.858;8.252;2024-01-15T09:26:30;64.90;;;18.45;;
46597;SDS011;32318;48.858;8.252;2024-01-15T09:34:30;69.55;;;19.02;;
46597;SDS011;32318;48.858;8.252;2024-01-15T09:42:30;71.15;;;19.40;;
46597;SDS011;32318;48.858;8.252;2024-01-15T09:50:32;65.57;;;19.08;;
46597;SDS011;32318;48.858;8.252;2024-01-15T09:58:32;67.28;;;19.63;;
46597;SDS011;32318;48.858;8.252;2024-01-15T10:06:34;75.97;;;20.15;;
46597;SDS011;32318;48.858;8.252;2024-01-15T10:14:35;68.03;;;21.17;;
46597;SDS011;32318;48.858;8.252;2024-01-15T10:22:35;84.18;;;20.45;;
46597;SDS011;32318;48.858;8.252;2024-01-15T10:30:37;66.20;;;18.77;;
46597;SDS011;32318;48.858;8.252;2024-01-15T10:38:38;58.28;;;18.27;;
46597;SDS011;32318;48.858;8.252;2024-01-15T10:46:38;58.15;;;16.33;;
46597;SDS011;32318;48.858;8.252;2024-01-15T10:54:39;57.55;;;15.80;;
46597;SDS011;32318;48.858;8.252;2024-01-15T11:02:40;47.28;;;15.18;;
46597;SDS011;32318;48.858;8.252;2024-01-15T11:10:42;54.40;;;14.18;;
46597;SDS011;32318;48.858;8.252;2024-01-15T11:18:45;54.13;;;13.75;;
46597;SDS011;32318;48.858;8.252;2024-01-15T11:27:02;44.65;;;14.15;;
46597;SDS011;32318;48.858;8.252;2024-01-15T11:35:02;49.08;;;14.40;;
46597;SDS011;32318;48.858;8.252;2024-01-15T11:43:03;44.00;;;13.23;;
46597;SDS011;32318;48.858;8.252;2024-01-15T11:51:05;42.55;;;13.75;;
46597;SDS011;32318;48.858;8.252;2024-01-15T11:59:07;48.13;;;13.90;;
46597;SDS011;32318;48.858;8.252;2024-01-15T12:07:08;48.30;;;15.40;;
46597;SDS011;32318;48.858;8.252;2024-01-15T12:15:08;51.55;;;14.63;;
46597;SDS011;32318;48.858;8.252;2024-01-15T12:23:09;43.67;;;14.20;;
46597;SDS011;32318;48.858;8.252;2024-01-15T12:31:10;45.15;;;13.88;;
46597;SDS011;32318;48.858;8.252;2024-01-15T12:39:13;47.63;;;14.15;;
46597;SDS011;32318;48.858;8.252;2024-01-15T12:47:13;61.53;;;16.55;;
46597;SDS011;32318;48.858;8.252;2024-01-15T12:55:16;60.20;;;15.27;;
46597;SDS011;32318;48.858;8.252;2024-01-15T13:03:17;59.90;;;16.10;;
46597;SDS011;32318;48.858;8.252;2024-01-15T13:11:18;50.42;;;14.60;;
46597;SDS011;32318;48.858;8.252;2024-01-15T13:19:18;43.13;;;14.18;;
46597;SDS011;32318;48.858;8.252;2024-01-15T13:27:19;41.28;;;14.07;;
46597;SDS011;32318;48.858;8.252;2024-01-15T13:35:19;39.47;;;14.02;;
46597;SDS011;32318;48.858;8.252;2024-01-15T13:43:22;34.90;;;11.52;;
46597;SDS011;32318;48.858;8.252;2024-01-15T13:51:23;41.13;;;13.38;;
46597;SDS011;32318;48.858;8.252;2024-01-15T13:59:23;27.05;;;10.02;;
46597;SDS011;32318;48.858;8.252;2024-01-15T14:07:23;36.40;;;11.65;;
46597;SDS011;32318;48.858;8.252;2024-01-15T14:15:24;29.70;;;10.88;;
46597;SDS011;32318;48.858;8.252;2024-01-15T14:23:25;33.20;;;11.15;;
46597;SDS011;32318;48.858;8.252;2024-01-15T14:31:25;34.47;;;11.00;;
46597;SDS011;32318;48.858;8.252;2024-01-15T14:39:26;32.10;;;10.18;;
46597;SDS011;32318;48.858;8.252;2024-01-15T14:47:26;28.58;;;10.52;;
46597;SDS011;32318;48.858;8.252;2024-01-15T14:55:27;26.08;;;10.23;;
46597;SDS011;32318;48.858;8.252;2024-01-15T15:03:27;25.02;;;10.40;;
46597;SDS011;32318;48.858;8.252;2024-01-15T15:11:28;25.70;;;9.70;;
46597;SDS011;32318;48.858;8.252;2024-01-15T15:19:28;34.72;;;11.98;;
46597;SDS011;32318;48.858;8.252;2024-01-15T15:27:28;30.15;;;10.93;;
46597;SDS011;32318;48.858;8.252;2024-01-15T15:35:29;20.02;;;8.27;;
46597;SDS011;32318;48.858;8.252;2024-01-15T15:43:29;22.02;;;8.35;;
46597;SDS011;32318;48.858;8.252;2024-01-15T15:51:30;24.27;;;9.27;;
46597;SDS011;32318;48.858;8.252;2024-01-15T15:59:30;17.58;;;7.80;;
46597;SDS011;32318;48.858;8.252;2024-01-15T16:07:30;24.05;;;9.32;;
46597;SDS011;32318;48.858;8.252;2024-01-15T16:15:30;28.42;;;11.73;;
46597;SDS011;32318;48.858;8.252;2024-01-15T16:23:31;92.15;;;44.47;;
46597;SDS011;32318;48.858;8.252;2024-01-15T16:31:31;25.35;;;10.73;;
46597;SDS011;32318;48.858;8.252;2024-01-15T16:39:31;26.95;;;10.00;;
46597;SDS011;32318;48.858;8.252;2024-01-15T16:47:32;20.08;;;9.00;;
46597;SDS011;32318;48.858;8.252;2024-01-15T16:55:32;20.80;;;8.52;;
46597;SDS011;32318;48.858;8.252;2024-01-15T17:03:32;19.95;;;8.23;;
46597;SDS011;32318;48.858;8.252;2024-01-15T17:11:33;22.02;;;7.93;;
46597;SDS011;32318;48.858;8.252;2024-01-15T17:19:33;25.90;;;8.73;;
46597;SDS011;32318;48.858;8.252;2024-01-15T17:27:34;22.95;;;8.07;;
46597;SDS011;32318;48.858;8.252;2024-01-15T17:35:34;23.65;;;8.10;;
46597;SDS011;32318;48.858;8.252;2024-01-15T17:43:34;21.70;;;7.88;;
46597;SDS011;32318;48.858;8.252;2024-01-15T17:51:36;18.67;;;7.85;;
46597;SDS011;32318;48.858;8.252;2024-01-15T17:59:36;24.65;;;8.10;;
46597;SDS011;32318;48.858;8.252;2024-01-15T18:07:37;25.60;;;8.35;;
46597;SDS011;32318;48.858;8.252;2024-01-15T18:15:37;19.23;;;7.68;;
46597;SDS011;32318;48.858;8.252;2024-01-15T18:23:37;21.30;;;8.73;;
46597;SDS011;32318;48.858;8.252;2024-01-15T18:31:38;28.50;;;8.13;;
46597;SDS011;32318;48.858;8.252;2024-01-15T18:39:42;24.67;;;8.20;;
46597;SDS011;32318;48.858;8.252;2024-01-15T18:47:44;26.10;;;9.13;;
46597;SDS011;32318;48.858;8.252;2024-01-15T18:55:45;18.52;;;7.25;;
46597;SDS011;32318;48.858;8.252;2024-01-15T19:03:45;24.50;;;7.88;;
46597;SDS011;32318;48.858;8.252;2024-01-15T19:11:45;26.83;;;7.40;;
46597;SDS011;32318;48.858;8.252;2024-01-15T19:19:45;19.52;;;7.22;;
46597;SDS011;32318;48.858;8.252;2024-01-15T19:27:50;23.33;;;7.67;;
46597;SDS011;32318;48.858;8.252;2024-01-15T19:35:53;22.90;;;8.48;;
46597;SDS011;32318;48.858;8.252;2024-01-15T19:43:53;29.65;;;10.00;;
46597;SDS011;32318;48.858;8.252;2024-01-15T19:51:54;23.00;;;8.40;;
46597;SDS011;32318;48.858;8.252;2024-01-15T19:59:55;22.55;;;8.57;;
46597;SDS011;32318;48.858;8.252;2024-01-15T20:07:55;24.67;;;8.67;;
46597;SDS011;32318;48.858;8.252;2024-01-15T20:15:55;29.08;;;8.73;;
46597;SDS011;32318;48.858;8.252;2024-01-15T20:23:56;16.20;;;6.93;;
46597;SDS011;32318;48.858;8.252;2024-01-15T20:31:56;27.02;;;8.27;;
46597;SDS011;32318;48.858;8.252;2024-01-15T20:39:56;21.52;;;8.38;;
46597;SDS011;32318;48.858;8.252;2024-01-15T20:47:58;22.23;;;7.00;;
46597;SDS011;32318;48.858;8.252;2024-01-15T20:55:59;24.67;;;8.07;;
46597;SDS011;32318;48.858;8.252;2024-01-15T21:03:59;21.90;;;7.45;;
46597;SDS011;32318;48.858;8.252;2024-01-15T21:12:00;24.73;;;6.80;;
46597;SDS011;32318;48.858;8.252;2024-01-15T21:20:00;17.13;;;6.50;;
46597;SDS011;32318;48.858;8.252;2024-01-15T21:28:03;19.85;;;7.47;;
46597;SDS011;32318;48.858;8.252;2024-01-15T21:36:04;24.38;;;7.30;;
46597;SDS011;32318;48.858;8.252;2024-01-15T21:44:05;16.13;;;5.95;;
46597;SDS011;32318;48.858;8.252;2024-01-15T21:52:06;17.00;;;6.25;;
46597;SDS011;32318;48.858;8.252;2024-01-15T22:00:06;21.83;;;6.53;;
46597;SDS011;32318;48.858;8.252;2024-01-15T22:08:08;22.88;;;6.80;;
46597;SDS011;32318;48.858;8.252;2024-01-15T22:16:09;22.80;;;6.78;;
46597;SDS011;32318;48.858;8.252;2024-01-15T22:24:10;15.85;;;6.22;;
46597;SDS011;32318;48.858;8.252;2024-01-15T22:32:10;19.77;;;6.10;;
46597;SDS011;32318;48.858;8.252;2024-01-15T22:40:10;17.88;;;7.53;;
46597;SDS011;32318;48.858;8.252;2024-01-15T22:48:12;18.73;;;6.32;;
46597;SDS011;32318;48.858;8.252;2024-01-15T22:56:13;20.48;;;6.93;;
46597;SDS011;32318;48.858;8.252;2024-01-15T23:04:13;17.67;;;6.43;;
46597;SDS011;32318;48.858;8.252;2024-01-15T23:12:14;21.30;;;7.03;;
46597;SDS011;32318;48.858;8.252;2024-01-15T23:20:14;23.02;;;7.38;;
46597;SDS011;32318;48.858;8.252;2024-01-15T23:28:14;12.40;;;5.45;;
46597;SDS011;32318;48.858;8.252;2024-01-15T23:36:15;17.58;;;5.80;;
46597;SDS011;32318;48.858;8.252;2024-01-15T23:44:15;18.42;;;5.75;;
46597;SDS011;32318;48.858;8.252;2024-01-15T23:52:15;16.98;;;6.45;;
